Time;durP1;ratioP1;P1;durP2;ratioP2;P2;SDS_P1;SDS_P2;PMS_P1;PMS_P2;Temp;Humidity;BMP_temperature;BMP_pressure;BME280_temperature;BME280_humidity;BME280_pressure;Samples;Min_cycle;Max_cycle;Signal;HPM_P1;HPM_P2
2023/07/27 00:02:18;;;;;;;5.85;2.33;;;14.10;99.90;;;;;;5018416;28;20056;-76
2023/07/27 00:05:05;;;;;;;3.88;2.45;;;14.10;99.90;;;;;;5032029;28;20106;-77
2023/07/27 00:07:51;;;;;;;5.60;2.85;;;14.00;99.90;;;;;;5041163;28;20450;-76
2023/07/27 00:10:37;;;;;;;5.00;2.72;;;14.00;99.90;;;;;;5029881;28;20116;-76
2023/07/27 00:13:23;;;;;;;4.60;2.35;;;14.00;99.90;;;;;;5025156;28;20107;-76
2023/07/27 00:16:09;;;;;;;7.22;2.55;;;13.90;99.90;;;;;;5026381;28;20045;-76
2023/07/27 00:18:55;;;;;;;5.20;2.13;;;13.90;99.90;;;;;;5008403;28;20037;-76
2023/07/27 00:21:40;;;;;;;4.13;2.40;;;13.90;99.90;;;;;;5007780;28;20080;-76
2023/07/27 00:24:26;;;;;;;5.03;2.63;;;13.80;99.90;;;;;;5008310;28;20041;-76
2023/07/27 00:27:12;;;;;;;5.18;2.47;;;13.80;99.90;;;;;;5007289;28;20045;-76
2023/07/27 00:29:58;;;;;;;5.00;2.65;;;13.90;99.90;;;;;;5021105;28;20133;-76
2023/07/27 00:32:44;;;;;;;4.72;2.30;;;13.80;99.90;;;;;;5033148;28;20481;-76
2023/07/27 00:35:30;;;;;;;5.43;2.38;;;13.90;99.90;;;;;;5022333;28;20045;-76
2023/07/27 00:38:16;;;;;;;4.85;2.15;;;13.80;99.90;;;;;;5034194;28;20131;-76
2023/07/27 00:41:04;;;;;;;4.15;2.60;;;13.80;99.90;;;;;;5036188;28;20132;-76
2023/07/27 00:43:50;;;;;;;4.95;2.83;;;13.80;99.90;;;;;;5030008;28;20060;-77
2023/07/27 00:46:36;;;;;;;6.20;2.28;;;13.80;99.90;;;;;;5021283;28;20120;-76
2023/07/27 00:49:22;;;;;;;4.53;2.40;;;13.80;99.90;;;;;;5006931;28;20052;-76
2023/07/27 00:52:08;;;;;;;4.88;2.50;;;13.80;99.90;;;;;;5017283;28;20034;-76
2023/07/27 00:54:54;;;;;;;4.28;2.50;;;13.80;99.90;;;;;;5019757;28;20052;-76
2023/07/27 00:57:40;;;;;;;4.25;2.40;;;13.80;99.90;;;;;;5019601;28;20045;-76
2023/07/27 01:00:27;;;;;;;4.03;2.22;;;13.80;99.90;;;;;;4988106;28;20041;-77
2023/07/27 01:03:13;;;;;;;5.07;2.53;;;13.80;99.90;;;;;;5018161;28;20426;-77
2023/07/27 01:05:59;;;;;;;4.40;2.22;;;13.80;99.90;;;;;;5009473;28;20049;-76
2023/07/27 01:08:45;;;;;;;4.68;2.40;;;13.70;99.90;;;;;;5011063;28;20147;-76
2023/07/27 01:11:34;;;;;;;5.90;2.70;;;13.70;99.90;;;;;;5011651;28;20046;-76
2023/07/27 01:14:42;;;;;;;7.65;2.60;;;13.60;99.90;;;;;;5020059;28;20683;-76
2023/07/27 01:17:34;;;;;;;;;;;13.60;99.90;;;;;;5041925;28;20048;-76
2023/07/27 01:20:28;;;;;;;8.13;2.42;;;13.60;99.90;;;;;;5030154;28;19963;-76
2023/07/27 01:23:33;;;;;;;4.03;2.50;;;13.60;99.90;;;;;;5029899;28;20053;-76
2023/07/27 01:26:57;;;;;;;6.28;2.80;;;13.60;99.90;;;;;;5017838;28;20045;-77
2023/07/27 01:30:04;;;;;;;4.38;2.60;;;13.60;99.90;;;;;;5020428;28;20041;-77
2023/07/27 01:33:13;;;;;;;5.30;2.47;;;13.50;99.90;;;;;;5020547;28;20056;-76
2023/07/27 01:36:10;;;;;;;5.55;2.70;;;13.50;99.90;;;;;;5034491;28;20037;-77
2023/07/27 01:38:59;;;;;;;5.40;2.70;;;13.40;99.90;;;;;;5031491;28;20428;-76
2023/07/27 01:41:45;;;;;;;6.85;3.00;;;13.50;99.90;;;;;;5002063;28;20044;-76
2023/07/27 01:44:31;;;;;;;4.53;2.92;;;13.50;99.90;;;;;;5000066;28;20046;-77
2023/07/27 01:47:17;;;;;;;8.65;3.65;;;13.40;99.90;;;;;;5001955;28;20096;-76
2023/07/27 01:50:05;;;;;;;6.80;3.05;;;13.40;99.90;;;;;;5019425;28;20038;-76
2023/07/27 01:52:52;;;;;;;7.28;3.58;;;13.40;99.90;;;;;;5007239;28;20033;-76
2023/07/27 01:55:38;;;;;;;4.78;3.22;;;13.40;99.90;;;;;;5038005;28;20045;-76
2023/07/27 01:58:26;;;;;;;5.90;3.30;;;13.40;99.90;;;;;;5032780;28;20454;-76
2023/07/27 02:01:12;;;;;;;5.22;2.90;;;13.40;99.90;;;;;;5005518;28;20374;-77
2023/07/27 02:03:58;;;;;;;5.03;3.03;;;13.30;99.90;;;;;;5017753;28;20041;-76
2023/07/27 02:06:45;;;;;;;7.57;3.53;;;13.30;99.90;;;;;;5019439;28;20103;-76
2023/07/27 02:09:31;;;;;;;5.05;3.22;;;13.30;99.90;;;;;;5018010;28;20049;-76
2023/07/27 02:12:25;;;;;;;6.22;3.33;;;13.30;99.90;;;;;;5030596;28;20052;-77
2023/07/27 02:15:13;;;;;;;6.47;2.92;;;13.30;99.90;;;;;;5021210;28;20053;-76
2023/07/27 02:18:03;;;;;;;8.75;3.78;;;13.30;99.90;;;;;;4998561;28;20374;-76
2023/07/27 02:20:50;;;;;;;9.07;3.70;;;13.30;99.90;;;;;;5001196;28;20046;-76
2023/07/27 02:23:36;;;;;;;6.30;3.38;;;13.30;99.90;;;;;;5011772;28;20376;-77
2023/07/27 02:26:23;;;;;;;5.55;3.50;;;13.40;99.90;;;;;;5039475;28;20127;-76
2023/07/27 02:29:09;;;;;;;5.00;3.38;;;13.40;99.90;;;;;;5038539;28;20116;-76
2023/07/27 02:31:55;;;;;;;5.40;3.50;;;13.40;99.90;;;;;;5025694;28;20128;-76
2023/07/27 02:34:41;;;;;;;6.90;3.55;;;13.40;99.90;;;;;;5034270;28;20072;-77
2023/07/27 02:37:26;;;;;;;5.43;3.08;;;13.40;99.90;;;;;;5025976;28;20048;-76
2023/07/27 02:40:12;;;;;;;7.47;3.20;;;13.40;99.90;;;;;;5020020;28;20528;-76
2023/07/27 02:42:58;;;;;;;5.38;3.30;;;13.40;99.90;;;;;;5008472;28;20187;-76
2023/07/27 02:45:44;;;;;;;7.57;3.45;;;13.40;99.90;;;;;;5038043;28;20044;-76
2023/07/27 02:48:30;;;;;;;8.38;3.78;;;13.40;99.90;;;;;;5025200;28;20053;-76
2023/07/27 02:51:16;;;;;;;7.20;3.47;;;13.40;99.90;;;;;;5005417;28;20486;-76
2023/07/27 02:54:02;;;;;;;4.70;3.20;;;13.50;99.90;;;;;;5030947;28;20040;-76
2023/07/27 02:56:48;;;;;;;5.88;3.47;;;13.50;99.90;;;;;;5018476;28;20052;-76
2023/07/27 02:59:34;;;;;;;5.28;3.15;;;13.50;99.90;;;;;;5041764;28;20044;-77
2023/07/27 03:02:20;;;;;;;5.22;3.50;;;13.50;99.90;;;;;;5037425;28;20052;-76
2023/07/27 03:05:07;;;;;;;6.97;3.40;;;13.50;99.90;;;;;;5024438;28;20049;-76
2023/07/27 03:07:53;;;;;;;6.85;4.03;;;13.50;99.90;;;;;;5021897;28;20037;-76
2023/07/27 03:10:39;;;;;;;7.90;3.90;;;13.50;99.90;;;;;;4998429;28;20769;-76
2023/07/27 03:13:25;;;;;;;6.55;3.80;;;13.50;99.90;;;;;;5021994;28;20051;-76
2023/07/27 03:16:11;;;;;;;5.93;3.55;;;13.50;99.90;;;;;;5010439;28;20037;-76
2023/07/27 03:18:57;;;;;;;4.70;3.45;;;13.50;99.90;;;;;;5023093;28;20084;-76
2023/07/27 03:21:43;;;;;;;7.78;3.80;;;13.50;99.90;;;;;;5037653;28;20488;-76
2023/07/27 03:24:29;;;;;;;4.90;3.35;;;13.50;99.90;;;;;;5043708;28;20048;-76
2023/07/27 03:27:15;;;;;;;5.65;3.83;;;13.60;99.90;;;;;;5010916;28;20033;-77
2023/07/27 03:30:01;;;;;;;5.97;4.13;;;13.50;99.90;;;;;;5036052;28;20418;-76
2023/07/27 03:32:47;;;;;;;4.45;3.65;;;13.60;99.90;;;;;;5037055;28;20044;-76
2023/07/27 03:35:33;;;;;;;7.72;4.78;;;13.60;99.90;;;;;;5008287;28;20041;-77
2023/07/27 03:38:19;;;;;;;7.78;4.45;;;13.60;99.90;;;;;;5009317;28;20037;-76
2023/07/27 03:41:05;;;;;;;5.50;3.85;;;13.60;99.90;;;;;;5022802;28;20045;-76
2023/07/27 03:43:51;;;;;;;5.47;3.83;;;13.60;99.90;;;;;;5007694;28;20112;-76
2023/07/27 03:46:37;;;;;;;5.05;3.55;;;13.70;99.90;;;;;;5021373;28;20041;-76
2023/07/27 03:49:23;;;;;;;5.50;4.05;;;13.70;99.90;;;;;;5027900;28;20068;-76
2023/07/27 03:52:09;;;;;;;9.98;4.00;;;13.70;99.90;;;;;;5004926;28;20096;-76
2023/07/27 03:54:55;;;;;;;6.07;4.07;;;13.70;99.90;;;;;;5023954;28;20049;-76
2023/07/27 03:57:41;;;;;;;6.80;3.80;;;13.70;99.90;;;;;;5016739;28;20057;-76
2023/07/27 04:00:27;;;;;;;6.15;3.92;;;13.80;99.90;;;;;;5013377;28;20041;-76
2023/07/27 04:03:13;;;;;;;7.85;3.75;;;13.80;99.90;;;;;;5021911;28;20045;-76
2023/07/27 04:05:59;;;;;;;7.03;3.97;;;13.80;99.90;;;;;;5020020;28;20046;-77
2023/07/27 04:08:45;;;;;;;6.45;4.38;;;13.90;99.90;;;;;;5021779;28;20042;-76
2023/07/27 04:11:32;;;;;;;7.53;3.90;;;13.80;99.90;;;;;;5008113;28;20497;-76
2023/07/27 04:14:18;;;;;;;6.93;4.22;;;13.90;99.90;;;;;;5020309;28;20429;-76
2023/07/27 04:17:04;;;;;;;7.30;3.80;;;13.90;99.90;;;;;;5021133;28;20046;-76
2023/07/27 04:19:51;;;;;;;7.20;3.95;;;13.90;99.90;;;;;;5002190;28;20067;-76
2023/07/27 04:22:36;;;;;;;6.03;3.78;;;14.00;99.90;;;;;;5028324;28;20057;-76
2023/07/27 04:25:23;;;;;;;5.65;3.70;;;14.00;99.90;;;;;;5027037;28;20121;-77
2023/07/27 04:28:09;;;;;;;5.22;3.92;;;14.00;99.90;;;;;;5019728;28;20084;-76
2023/07/27 04:30:55;;;;;;;8.48;4.15;;;14.00;99.90;;;;;;5040964;28;20037;-76
2023/07/27 04:33:41;;;;;;;8.63;4.20;;;14.10;99.90;;;;;;4998797;28;20099;-76
2023/07/27 04:36:27;;;;;;;7.70;4.07;;;14.10;99.90;;;;;;5033128;28;20029;-77
2023/07/27 04:39:14;;;;;;;7.10;3.78;;;14.20;99.90;;;;;;5000401;28;20500;-77
2023/07/27 04:42:00;;;;;;;5.70;3.60;;;14.20;99.90;;;;;;5021566;28;20051;-77
2023/07/27 04:44:46;;;;;;;6.25;4.35;;;14.20;99.90;;;;;;5021955;28;20112;-77
2023/07/27 04:47:32;;;;;;;7.35;3.97;;;14.20;99.90;;;;;;5007051;28;20342;-76
2023/07/27 04:50:18;;;;;;;5.55;3.47;;;14.20;99.90;;;;;;5019849;28;20068;-76
2023/07/27 04:53:04;;;;;;;6.95;4.03;;;14.30;99.90;;;;;;5018451;28;20048;-76
2023/07/27 04:55:50;;;;;;;7.55;3.92;;;14.30;99.90;;;;;;5021906;28;20046;-76
2023/07/27 04:58:35;;;;;;;5.97;3.85;;;14.30;99.90;;;;;;5036286;28;20044;-76
2023/07/27 05:01:21;;;;;;;6.10;3.63;;;14.30;99.90;;;;;;5026710;28;20049;-76
2023/07/27 05:04:07;;;;;;;6.40;3.70;;;14.40;99.90;;;;;;5010741;28;20052;-76
2023/07/27 05:06:53;;;;;;;10.45;4.10;;;14.40;99.90;;;;;;5008163;28;20370;-76
2023/07/27 05:09:39;;;;;;;5.60;3.75;;;14.40;99.90;;;;;;5012325;28;20104;-77
2023/07/27 05:12:25;;;;;;;6.53;3.80;;;14.40;99.90;;;;;;5011538;28;20369;-77
2023/07/27 05:15:11;;;;;;;6.43;3.92;;;14.50;99.90;;;;;;5005681;28;20053;-77
2023/07/27 05:17:57;;;;;;;7.22;3.58;;;14.50;99.90;;;;;;5021337;28;20049;-77
2023/07/27 05:20:43;;;;;;;8.68;4.15;;;14.50;99.90;;;;;;5013948;28;20104;-76
2023/07/27 05:23:29;;;;;;;7.15;3.78;;;14.50;99.90;;;;;;5013820;28;20045;-77
2023/07/27 05:26:15;;;;;;;8.38;3.95;;;14.50;99.90;;;;;;5009494;28;20055;-77
2023/07/27 05:29:01;;;;;;;7.72;3.70;;;14.50;99.90;;;;;;5024929;28;20080;-76
2023/07/27 05:31:47;;;;;;;5.55;3.80;;;14.60;99.90;;;;;;5035557;28;20045;-76
2023/07/27 05:34:34;;;;;;;7.25;3.47;;;14.60;99.90;;;;;;5010244;28;20132;-76
2023/07/27 05:37:20;;;;;;;9.15;3.70;;;14.60;99.90;;;;;;5035066;28;20136;-76
2023/07/27 05:40:09;;;;;;;5.53;3.85;;;14.60;99.90;;;;;;5008374;28;20037;-76
2023/07/27 05:42:55;;;;;;;5.57;3.28;;;14.60;99.90;;;;;;5027047;28;20045;-76
2023/07/27 05:45:42;;;;;;;6.97;3.50;;;14.70;99.90;;;;;;5021247;28;20037;-76
2023/07/27 05:48:30;;;;;;;6.35;3.80;;;14.70;99.90;;;;;;5000882;28;20041;-76
2023/07/27 05:51:16;;;;;;;5.97;3.58;;;14.70;99.90;;;;;;5032495;28;20124;-76
2023/07/27 05:54:02;;;;;;;5.00;3.25;;;14.80;99.90;;;;;;5026060;28;20045;-76
2023/07/27 05:56:48;;;;;;;6.57;3.47;;;14.80;99.90;;;;;;5012662;28;20091;-76
2023/07/27 05:59:34;;;;;;;6.22;3.60;;;14.80;99.90;;;;;;5012010;28;20049;-76
2023/07/27 06:02:20;;;;;;;6.53;3.65;;;14.90;99.90;;;;;;5013684;28;20045;-76
2023/07/27 06:05:08;;;;;;;11.57;4.03;;;14.90;99.90;;;;;;5024442;28;20123;-76
2023/07/27 06:07:54;;;;;;;10.80;3.78;;;15.00;99.90;;;;;;5033375;28;20033;-76
2023/07/27 06:10:40;;;;;;;7.72;3.22;;;14.90;99.90;;;;;;5031789;28;20197;-76
2023/07/27 06:13:26;;;;;;;8.18;3.20;;;15.00;99.90;;;;;;5006757;28;20346;-76
2023/07/27 06:16:12;;;;;;;6.53;3.53;;;15.00;99.90;;;;;;5021948;28;20045;-76
2023/07/27 06:18:58;;;;;;;8.32;3.67;;;15.00;99.90;;;;;;5039685;28;20040;-76
2023/07/27 06:21:44;;;;;;;5.57;3.70;;;15.00;99.90;;;;;;5041471;28;20131;-76
2023/07/27 06:24:30;;;;;;;5.50;3.42;;;15.10;99.90;;;;;;5018773;28;20052;-77
2023/07/27 06:27:16;;;;;;;8.13;3.63;;;15.10;99.90;;;;;;5024611;28;20069;-76
2023/07/27 06:30:03;;;;;;;6.40;3.17;;;15.20;99.90;;;;;;5020627;28;20053;-76
2023/07/27 06:32:49;;;;;;;5.97;3.72;;;15.20;99.90;;;;;;5017760;28;20369;-76
2023/07/27 06:35:35;;;;;;;7.75;4.18;;;15.20;99.90;;;;;;5030735;28;20490;-76
2023/07/27 06:38:20;;;;;;;5.65;3.22;;;15.20;99.90;;;;;;5004906;28;20052;-76
2023/07/27 06:41:06;;;;;;;6.68;3.22;;;15.30;99.90;;;;;;5010308;28;20070;-76
2023/07/27 06:43:52;;;;;;;5.63;3.20;;;15.30;99.90;;;;;;5032892;28;20041;-76
2023/07/27 06:46:38;;;;;;;5.20;3.20;;;15.30;99.90;;;;;;5018277;28;20033;-76
2023/07/27 06:49:24;;;;;;;6.45;3.55;;;15.40;99.90;;;;;;5018236;28;20044;-76
2023/07/27 06:52:10;;;;;;;5.32;3.25;;;15.40;99.90;;;;;;5019059;28;20042;-76
2023/07/27 06:54:56;;;;;;;5.65;3.17;;;15.40;99.90;;;;;;5009984;28;20060;-77
2023/07/27 06:57:42;;;;;;;4.40;2.70;;;15.50;99.90;;;;;;5027766;28;20500;-78
2023/07/27 07:00:28;;;;;;;7.93;3.17;;;15.50;99.90;;;;;;5005365;28;20113;-78
2023/07/27 07:03:14;;;;;;;7.97;3.03;;;15.50;99.90;;;;;;5019095;28;20040;-78
2023/07/27 07:06:00;;;;;;;7.47;2.78;;;15.50;99.90;;;;;;5017191;28;20257;-78
2023/07/27 07:08:47;;;;;;;17.10;3.50;;;15.60;99.90;;;;;;5018652;28;20083;-78
2023/07/27 07:11:35;;;;;;;6.00;3.10;;;15.70;99.90;;;;;;5004551;28;20103;-78
2023/07/27 07:14:21;;;;;;;6.07;2.90;;;15.70;99.90;;;;;;5017678;28;20065;-78
2023/07/27 07:17:07;;;;;;;6.97;2.83;;;15.80;99.90;;;;;;5007474;28;20049;-78
2023/07/27 07:19:53;;;;;;;8.20;3.08;;;15.80;99.90;;;;;;5020760;28;20038;-77
2023/07/27 07:22:39;;;;;;;3.95;2.58;;;15.90;99.90;;;;;;5019328;28;20480;-78
2023/07/27 07:25:25;;;;;;;5.78;3.08;;;15.90;99.90;;;;;;5026580;28;20057;-77
2023/07/27 07:28:11;;;;;;;4.57;2.90;;;16.00;99.90;;;;;;4991137;28;20041;-78
2023/07/27 07:30:57;;;;;;;5.30;2.63;;;16.10;99.90;;;;;;5019973;28;20048;-78
2023/07/27 07:33:43;;;;;;;4.63;2.47;;;16.20;99.90;;;;;;5021428;28;20694;-77
2023/07/27 07:36:29;;;;;;;5.30;2.53;;;16.20;99.90;;;;;;5023522;28;20052;-77
2023/07/27 07:39:15;;;;;;;6.40;2.95;;;16.30;99.90;;;;;;5014534;28;20052;-77
2023/07/27 07:42:01;;;;;;;6.78;2.70;;;16.30;99.90;;;;;;5017951;28;20053;-78
2023/07/27 07:44:47;;;;;;;7.22;2.70;;;16.30;99.90;;;;;;5025385;28;20477;-75
2023/07/27 07:47:33;;;;;;;4.90;2.53;;;16.40;99.90;;;;;;5013436;28;20065;-75
2023/07/27 07:50:19;;;;;;;4.63;2.88;;;16.40;99.90;;;;;;5012274;28;20110;-74
2023/07/27 07:53:05;;;;;;;5.20;2.78;;;16.40;99.90;;;;;;5003933;28;20142;-75
2023/07/27 07:55:51;;;;;;;7.10;2.63;;;16.40;99.90;;;;;;5011172;28;20390;-75
2023/07/27 07:58:37;;;;;;;4.97;2.60;;;16.30;99.90;;;;;;5003466;28;20149;-75
2023/07/27 08:01:23;;;;;;;6.88;3.38;;;16.40;99.90;;;;;;5010876;28;20107;-74
2023/07/27 08:04:09;;;;;;;6.22;2.55;;;16.40;99.90;;;;;;5024446;28;20045;-75
2023/07/27 08:06:55;;;;;;;5.20;2.83;;;16.40;99.90;;;;;;5019248;28;20208;-74
2023/07/27 08:09:41;;;;;;;7.38;2.88;;;16.40;99.90;;;;;;5023144;28;20492;-75
2023/07/27 08:12:28;;;;;;;4.00;2.50;;;16.30;99.90;;;;;;5016459;28;20129;-75
2023/07/27 08:15:14;;;;;;;5.47;2.53;;;16.30;99.90;;;;;;5010485;28;20355;-75
2023/07/27 08:18:00;;;;;;;6.00;2.65;;;16.40;99.90;;;;;;5004536;28;20037;-75
2023/07/27 08:20:57;;;;;;;9.20;3.30;;;16.40;99.90;;;;;;5017024;28;20128;-75
2023/07/27 08:23:43;;;;;;;6.68;3.50;;;16.50;99.90;;;;;;5018024;28;20048;-75
2023/07/27 08:26:29;;;;;;;6.50;3.20;;;16.50;99.90;;;;;;5007523;28;20056;-75
2023/07/27 08:29:15;;;;;;;6.93;3.40;;;16.30;99.90;;;;;;5008069;28;20037;-75
2023/07/27 08:32:02;;;;;;;8.73;3.10;;;16.20;99.90;;;;;;5020198;28;20072;-75
2023/07/27 08:34:48;;;;;;;6.00;3.22;;;16.10;99.90;;;;;;5008891;28;20142;-75
2023/07/27 08:37:34;;;;;;;6.60;2.97;;;16.10;99.90;;;;;;5020670;28;20171;-75
2023/07/27 08:40:20;;;;;;;6.60;3.10;;;16.20;99.90;;;;;;5002230;28;20034;-75
2023/07/27 08:43:07;;;;;;;7.18;2.95;;;16.00;99.90;;;;;;5019369;28;20037;-75
2023/07/27 08:45:54;;;;;;;6.30;3.00;;;16.10;99.90;;;;;;5007437;28;20477;-75
2023/07/27 08:48:40;;;;;;;4.60;3.10;;;16.10;99.90;;;;;;5007807;28;20041;-75
2023/07/27 08:51:25;;;;;;;5.47;3.15;;;16.00;99.90;;;;;;5027360;28;20032;-75
2023/07/27 08:54:12;;;;;;;6.55;3.22;;;16.20;99.90;;;;;;5019414;28;20075;-75
2023/07/27 08:56:58;;;;;;;5.40;3.17;;;16.20;99.90;;;;;;5014619;28;20037;-75
2023/07/27 08:59:44;;;;;;;4.63;3.00;;;16.30;99.90;;;;;;5023298;28;20064;-75
2023/07/27 09:02:30;;;;;;;4.47;3.13;;;16.30;99.90;;;;;;5022658;28;20033;-75
2023/07/27 09:05:15;;;;;;;6.78;3.28;;;16.30;99.90;;;;;;5024343;28;20075;-75
2023/07/27 09:08:11;;;;;;;5.53;2.95;;;16.40;99.90;;;;;;5030145;28;20037;-75
2023/07/27 09:11:04;;;;;;;6.00;3.10;;;16.40;99.90;;;;;;5001841;28;20058;-75
2023/07/27 09:13:50;;;;;;;6.60;3.25;;;16.50;99.90;;;;;;5025570;28;20413;-75
2023/07/27 09:16:37;;;;;;;6.32;3.13;;;16.40;99.90;;;;;;5007646;28;20042;-75
2023/07/27 09:19:24;;;;;;;5.43;3.70;;;16.50;99.90;;;;;;5032089;28;20045;-75
2023/07/27 09:22:14;;;;;;;4.30;3.25;;;16.50;99.90;;;;;;5009106;28;20474;-75
2023/07/27 09:25:00;;;;;;;4.78;2.90;;;16.50;99.90;;;;;;5026967;28;20045;-75
2023/07/27 09:27:46;;;;;;;5.13;3.45;;;16.60;99.90;;;;;;5028461;28;20647;-75
2023/07/27 09:30:35;;;;;;;7.20;3.35;;;16.60;99.90;;;;;;5020317;28;20034;-75
2023/07/27 09:33:24;;;;;;;5.20;3.03;;;16.70;99.90;;;;;;5009665;28;20425;-75
2023/07/27 09:36:10;;;;;;;5.97;3.30;;;16.70;99.90;;;;;;5001534;28;20044;-75
2023/07/27 09:38:56;;;;;;;6.30;3.20;;;16.70;99.90;;;;;;5026746;28;20045;-75
2023/07/27 09:41:43;;;;;;;5.50;3.20;;;16.80;99.90;;;;;;5005018;28;20477;-75
2023/07/27 09:44:29;;;;;;;5.90;2.88;;;16.80;99.90;;;;;;5007657;28;20049;-75
2023/07/27 09:47:23;;;;;;;6.00;2.92;;;16.90;99.90;;;;;;5019694;28;20779;-75
2023/07/27 09:50:10;;;;;;;6.53;3.20;;;16.90;99.90;;;;;;5008634;28;20037;-75
2023/07/27 09:52:56;;;;;;;7.05;3.55;;;16.90;99.90;;;;;;5006136;28;20036;-75
2023/07/27 09:55:43;;;;;;;4.43;2.78;;;16.80;99.90;;;;;;5004221;28;20045;-75
2023/07/27 09:58:29;;;;;;;6.97;3.45;;;16.90;99.90;;;;;;4994325;28;20047;-76
2023/07/27 10:01:17;;;;;;;5.05;2.67;;;17.00;99.90;;;;;;5018653;28;20045;-75
2023/07/27 10:04:03;;;;;;;5.30;2.78;;;17.10;99.90;;;;;;5018206;28;20052;-75
2023/07/27 10:06:49;;;;;;;4.47;2.70;;;17.10;99.90;;;;;;5008015;28;20030;-75
2023/07/27 10:09:38;;;;;;;5.13;3.08;;;17.10;99.90;;;;;;5008168;28;20054;-75
2023/07/27 10:12:27;;;;;;;6.78;2.78;;;17.10;99.90;;;;;;5009449;28;20033;-74
2023/07/27 10:15:20;;;;;;;4.80;2.72;;;17.20;99.90;;;;;;4992633;28;20454;-75
2023/07/27 10:18:07;;;;;;;6.72;2.97;;;17.20;99.90;;;;;;4992735;28;20049;-75
2023/07/27 10:21:16;;;;;;;6.90;2.47;;;17.30;99.90;;;;;;4998786;28;20119;-74
2023/07/27 10:24:02;;;;;;;5.38;2.83;;;17.30;99.90;;;;;;5000749;28;20374;-75
2023/07/27 10:26:52;;;;;;;5.13;2.53;;;17.30;99.90;;;;;;5018988;28;20774;-75
2023/07/27 10:29:38;;;;;;;4.95;2.90;;;17.30;99.90;;;;;;5009196;28;20037;-75
2023/07/27 10:32:24;;;;;;;7.72;2.75;;;17.30;99.90;;;;;;5004657;28;20470;-74
2023/07/27 10:35:10;;;;;;;5.47;3.28;;;17.30;99.90;;;;;;5016334;28;20045;-74
2023/07/27 10:37:56;;;;;;;4.50;2.65;;;17.30;99.90;;;;;;5024615;28;20056;-74
2023/07/27 10:40:42;;;;;;;4.97;2.83;;;17.30;99.90;;;;;;5016081;28;20037;-74
2023/07/27 10:43:28;;;;;;;5.60;2.92;;;17.30;99.90;;;;;;4994062;28;20042;-74
2023/07/27 10:46:23;;;;;;;5.03;2.78;;;17.20;99.90;;;;;;5007730;28;20080;-75
2023/07/27 10:49:09;;;;;;;6.00;2.40;;;17.20;99.90;;;;;;5004949;28;20048;-74
2023/07/27 10:51:55;;;;;;;6.75;3.22;;;17.20;99.90;;;;;;5019334;28;20073;-74
2023/07/27 10:54:41;;;;;;;4.85;2.75;;;17.10;99.90;;;;;;4999379;28;20074;-75
2023/07/27 10:57:28;;;;;;;5.88;3.28;;;17.10;99.90;;;;;;5012875;28;20137;-74
2023/07/27 11:00:15;;;;;;;5.27;3.40;;;17.10;99.90;;;;;;5022914;28;20041;-74
2023/07/27 11:03:00;;;;;;;5.57;3.30;;;17.00;99.90;;;;;;5020371;28;20189;-75
2023/07/27 11:06:02;;;;;;;5.05;3.22;;;16.90;99.90;;;;;;5005758;28;20053;-74
2023/07/27 11:08:48;;;;;;;7.47;3.95;;;16.90;99.90;;;;;;5008642;28;20466;-74
2023/07/27 11:11:35;;;;;;;7.10;3.72;;;17.00;99.90;;;;;;5008974;28;20462;-74
2023/07/27 11:14:22;;;;;;;6.68;3.80;;;16.90;99.90;;;;;;5000677;28;20044;-74
2023/07/27 11:17:09;;;;;;;7.03;4.18;;;16.90;99.90;;;;;;5009097;28;20050;-74
2023/07/27 11:19:55;;;;;;;7.50;4.15;;;16.90;99.90;;;;;;5007249;28;20343;-74
2023/07/27 11:22:41;;;;;;;6.72;4.25;;;16.80;99.90;;;;;;5010675;28;20045;-74
2023/07/27 11:25:32;;;;;;;6.65;3.50;;;16.80;99.90;;;;;;5010789;28;20422;-75
2023/07/27 11:28:19;;;;;;;6.22;3.78;;;16.80;99.90;;;;;;5016710;28;20151;-75
2023/07/27 11:31:06;;;;;;;4.87;3.80;;;16.80;99.90;;;;;;5044789;28;20037;-74
2023/07/27 11:33:58;;;;;;;6.50;3.30;;;16.80;99.90;;;;;;5004106;28;20040;-75
2023/07/27 11:36:43;;;;;;;6.85;4.00;;;16.80;99.90;;;;;;5019589;28;20041;-74
2023/07/27 11:39:29;;;;;;;5.35;3.83;;;16.80;99.90;;;;;;5036425;28;20362;-74
2023/07/27 11:42:15;;;;;;;7.07;4.05;;;16.80;99.90;;;;;;5015875;28;20128;-74
2023/07/27 11:45:02;;;;;;;5.65;4.00;;;16.90;99.90;;;;;;5023992;28;20567;-74
2023/07/27 11:47:50;;;;;;;6.05;4.22;;;16.80;99.90;;;;;;5012188;28;20099;-74
2023/07/27 11:50:39;;;;;;;6.53;3.80;;;16.90;99.90;;;;;;5028008;28;20033;-74
2023/07/27 11:53:26;;;;;;;6.72;3.92;;;16.90;99.90;;;;;;5019383;28;20038;-75
2023/07/27 11:56:13;;;;;;;6.35;4.50;;;16.90;99.90;;;;;;5018104;28;20178;-74
2023/07/27 11:58:59;;;;;;;10.73;4.10;;;16.80;99.90;;;;;;5012374;28;20498;-74
2023/07/27 12:01:45;;;;;;;7.88;3.80;;;16.90;99.90;;;;;;5012820;28;20045;-74
2023/07/27 12:04:31;;;;;;;9.88;4.25;;;16.90;99.90;;;;;;5019202;28;20406;-74
2023/07/27 12:07:18;;;;;;;5.57;3.53;;;16.90;99.90;;;;;;5014161;28;20113;-74
2023/07/27 12:10:05;;;;;;;8.37;3.90;;;16.90;99.90;;;;;;4972684;28;1146410;-74
2023/07/27 12:13:03;;;;;;;6.95;3.92;;;16.90;99.90;;;;;;5023190;28;20041;-74
2023/07/27 12:15:59;;;;;;;6.40;4.45;;;16.90;99.90;;;;;;5016263;28;20045;-74
2023/07/27 12:18:47;;;;;;;6.13;3.83;;;17.00;99.90;;;;;;5018997;28;20034;-74
2023/07/27 12:21:39;;;;;;;6.03;3.90;;;16.90;99.90;;;;;;5021761;28;20500;-74
2023/07/27 12:24:26;;;;;;;6.40;4.22;;;16.80;99.90;;;;;;5010955;28;20628;-73
2023/07/27 12:27:12;;;;;;;5.72;3.67;;;16.80;99.90;;;;;;5007877;28;20090;-74
2023/07/27 12:29:58;;;;;;;6.28;4.38;;;16.80;99.90;;;;;;5016363;28;20046;-74
2023/07/27 12:32:44;;;;;;;6.55;3.83;;;16.70;99.90;;;;;;5037705;28;20167;-74
2023/07/27 12:35:30;;;;;;;8.35;4.30;;;16.70;99.90;;;;;;5019574;28;20076;-74
2023/07/27 12:38:16;;;;;;;7.03;4.32;;;16.70;99.90;;;;;;5025019;28;20343;-74
2023/07/27 12:41:02;;;;;;;5.72;3.50;;;16.80;99.90;;;;;;5034421;28;20069;-74
2023/07/27 12:43:48;;;;;;;4.72;3.30;;;16.70;99.90;;;;;;5004110;28;20107;-74
2023/07/27 12:46:34;;;;;;;4.63;3.35;;;16.70;99.90;;;;;;5017683;28;20069;-74
2023/07/27 12:49:20;;;;;;;4.53;3.22;;;16.70;99.90;;;;;;5019659;28;20370;-73
2023/07/27 12:52:06;;;;;;;6.55;4.03;;;16.60;99.90;;;;;;5039865;28;20051;-74
2023/07/27 12:54:52;;;;;;;5.00;2.97;;;16.60;99.90;;;;;;5038761;28;20087;-74
2023/07/27 12:57:41;;;;;;;4.95;3.05;;;16.60;99.90;;;;;;5019701;28;20071;-74
2023/07/27 13:00:27;;;;;;;4.53;2.67;;;16.60;99.90;;;;;;5018339;28;20049;-74
2023/07/27 13:03:13;;;;;;;3.88;2.80;;;16.60;99.90;;;;;;5016256;28;20033;-74
2023/07/27 13:06:00;;;;;;;3.97;3.13;;;16.60;99.90;;;;;;5004996;28;20060;-74
2023/07/27 13:08:46;;;;;;;5.13;2.42;;;16.60;99.90;;;;;;5017692;28;20048;-74
2023/07/27 13:11:32;;;;;;;6.45;2.50;;;16.70;99.90;;;;;;5030223;28;20866;-74
2023/07/27 13:14:19;;;;;;;3.90;2.67;;;16.70;99.90;;;;;;5006046;28;20065;-75
2023/07/27 13:17:06;;;;;;;5.45;2.88;;;16.70;99.90;;;;;;5016629;28;20053;-74
2023/07/27 13:19:51;;;;;;;3.90;2.83;;;16.80;99.90;;;;;;5022253;28;20048;-74
2023/07/27 13:22:38;;;;;;;4.43;2.58;;;16.80;99.90;;;;;;5020364;28;20048;-74
2023/07/27 13:25:24;;;;;;;4.63;2.90;;;16.80;99.90;;;;;;5021659;28;20347;-74
2023/07/27 13:28:09;;;;;;;6.13;3.28;;;16.70;99.90;;;;;;5005474;28;20120;-74
2023/07/27 13:30:55;;;;;;;7.85;3.03;;;16.70;99.90;;;;;;5015038;28;20102;-74
2023/07/27 13:33:41;;;;;;;4.95;2.47;;;16.60;99.90;;;;;;5005971;28;20045;-74
2023/07/27 13:36:27;;;;;;;3.65;2.35;;;16.60;99.90;;;;;;5004613;28;20823;-74
2023/07/27 13:39:13;;;;;;;3.97;2.50;;;16.60;99.90;;;;;;5004129;28;20069;-74
2023/07/27 13:42:01;;;;;;;3.97;2.50;;;16.70;99.90;;;;;;4999815;28;20033;-75
2023/07/27 13:44:46;;;;;;;4.07;2.17;;;16.70;99.90;;;;;;5024086;28;20049;-74
2023/07/27 13:47:32;;;;;;;3.20;2.22;;;16.70;99.90;;;;;;5019843;28;20083;-74
2023/07/27 13:50:18;;;;;;;3.22;2.00;;;16.70;99.90;;;;;;5030999;28;20041;-75
2023/07/27 13:53:04;;;;;;;3.83;2.50;;;16.70;99.90;;;;;;5031308;28;20461;-75
2023/07/27 13:55:52;;;;;;;4.25;2.53;;;16.70;99.90;;;;;;4999802;28;20049;-74
2023/07/27 13:58:39;;;;;;;2.88;1.88;;;16.70;99.90;;;;;;5038891;28;20041;-74
2023/07/27 14:01:26;;;;;;;3.17;2.13;;;16.70;99.90;;;;;;5025190;28;20445;-74
2023/07/27 14:04:12;;;;;;;3.55;2.00;;;16.70;99.90;;;;;;5024493;28;20587;-74
2023/07/27 14:06:58;;;;;;;3.05;1.80;;;16.70;99.90;;;;;;5039679;28;20045;-74
2023/07/27 14:09:44;;;;;;;2.65;1.92;;;16.70;99.90;;;;;;5007931;28;20060;-74
2023/07/27 14:12:30;;;;;;;4.28;1.83;;;16.60;99.90;;;;;;5025687;28;20124;-74
2023/07/27 14:15:16;;;;;;;3.65;2.08;;;16.70;99.90;;;;;;5024900;28;20072;-75
2023/07/27 14:18:02;;;;;;;3.20;1.50;;;16.70;99.90;;;;;;5036551;28;20049;-74
2023/07/27 14:20:48;;;;;;;3.90;1.83;;;16.70;99.90;;;;;;5026251;28;20071;-74
2023/07/27 14:23:33;;;;;;;2.33;1.60;;;16.70;99.90;;;;;;5018208;28;20051;-77
2023/07/27 14:26:19;;;;;;;7.20;1.60;;;16.80;99.90;;;;;;5009779;28;20115;-75
2023/07/27 14:29:05;;;;;;;3.42;1.52;;;16.80;99.90;;;;;;4995897;28;20034;-76
2023/07/27 14:31:52;;;;;;;2.83;1.70;;;16.80;99.90;;;;;;5012952;28;20053;-76